Time;durP1;ratioP1;P1;durP2;ratioP2;P2;SDS_P1;SDS_P2;PMS_P1;PMS_P2;Temp;Humidity;BMP_temperature;BMP_pressure;BME280_temperature;BME280_humidity;BME280_pressure;Samples;Min_cycle;Max_cycle;Signal;HPM_P1;HPM_P2
2022/03/01 00:01:16;;;;;;;11.30;8.48;;;;;;;6.09;40.29;101536.41;10318720;28;20050;-63
2022/03/01 00:06:17;;;;;;;10.23;8.40;;;;;;;6.14;40.12;101545.00;10317089;28;20073;-63
2022/03/01 00:11:18;;;;;;;9.82;8.52;;;;;;;6.16;40.11;101561.69;10316595;28;20544;-64
2022/03/01 00:16:20;;;;;;;11.32;8.10;;;;;;;6.07;40.08;101557.63;10321261;28;20137;-64
2022/03/01 00:21:22;;;;;;;12.25;9.30;;;;;;;6.00;40.25;101558.81;10324121;28;20884;-63
2022/03/01 00:26:23;;;;;;;10.57;8.38;;;;;;;5.84;40.45;101547.97;10316081;28;20077;-63
2022/03/01 00:31:24;;;;;;;11.43;8.93;;;;;;;5.86;39.59;101576.97;10317274;28;20060;-64
2022/03/01 00:36:26;;;;;;;10.23;8.40;;;;;;;5.82;39.80;101578.88;10324866;28;20217;-65
2022/03/01 00:41:27;;;;;;;11.30;8.70;;;;;;;5.68;39.94;101581.19;10321223;28;20126;-64
2022/03/01 00:46:29;;;;;;;10.00;8.02;;;;;;;5.57;40.13;101566.63;10314096;28;20161;-65
2022/03/01 00:51:31;;;;;;;12.48;9.45;;;;;;;5.53;39.47;101567.66;10318914;28;20107;-64
2022/03/01 00:56:34;;;;;;;11.70;9.70;;;;;;;5.57;39.92;101577.19;10321036;28;20549;-65
2022/03/01 01:01:36;;;;;;;12.02;9.38;;;;;;;5.58;39.60;101584.19;10314827;28;20533;-64
2022/03/01 01:06:37;;;;;;;13.20;9.23;;;;;;;5.45;39.89;101585.56;10314706;28;20053;-64
2022/03/01 01:11:44;;;;;;;14.60;9.60;;;;;;;5.36;39.87;101588.56;10315251;28;20046;-64
2022/03/01 01:16:45;;;;;;;13.85;10.40;;;;;;;5.32;40.16;101588.66;10333744;28;20109;-64
2022/03/01 01:27:06;;;;;;;14.38;9.50;;;;;;;5.21;39.85;101580.28;10315162;28;20133;-64
2022/03/01 01:32:08;;;;;;;13.40;10.18;;;;;;;5.14;40.27;101574.38;10320921;28;20046;-65
2022/03/01 01:37:10;;;;;;;13.85;10.48;;;;;;;5.09;40.37;101573.69;10324261;28;20828;-64
2022/03/01 01:42:11;;;;;;;12.60;9.85;;;;;;;5.00;40.63;101583.69;10318252;28;20047;-65
2022/03/01 01:47:12;;;;;;;11.40;9.45;;;;;;;4.96;41.01;101597.00;10315017;28;20085;-65
2022/03/01 01:52:14;;;;;;;11.70;9.25;;;;;;;4.93;40.48;101591.84;10316519;28;20061;-65
2022/03/01 01:57:21;;;;;;;13.88;9.85;;;;;;;4.89;40.57;101590.22;10313069;28;20060;-64
2022/03/01 02:02:25;;;;;;;15.23;10.52;;;;;;;4.89;40.58;101595.50;10313710;28;20042;-64
2022/03/01 02:07:27;;;;;;;14.70;9.95;;;;;;;4.84;40.60;101576.34;10329965;28;20078;-64
2022/03/01 02:12:28;;;;;;;12.27;9.88;;;;;;;4.55;40.88;101575.59;10313371;28;20049;-64
2022/03/01 02:17:31;;;;;;;15.02;10.95;;;;;;;4.53;41.30;101566.84;10317573;28;20057;-63
2022/03/01 02:22:33;;;;;;;13.85;9.73;;;;;;;4.59;41.10;101571.94;10313328;28;20128;-65
2022/03/01 02:27:36;;;;;;;14.45;10.00;;;;;;;4.54;41.20;101568.56;10314833;28;20133;-64
2022/03/01 02:32:39;;;;;;;13.30;9.10;;;;;;;4.41;41.42;101551.44;10315318;28;20616;-64
2022/03/01 02:37:42;;;;;;;15.20;10.85;;;;;;;4.39;41.53;101563.84;10311941;28;20053;-64
2022/03/01 02:42:45;;;;;;;13.65;9.02;;;;;;;4.31;41.54;101550.91;10315478;28;20351;-64
2022/03/01 02:47:47;;;;;;;12.95;9.63;;;;;;;4.30;41.51;101558.88;10313308;28;20046;-63
2022/03/01 02:52:49;;;;;;;15.73;11.10;;;;;;;4.22;41.91;101552.06;10311696;28;20069;-63
2022/03/01 02:57:50;;;;;;;15.25;11.02;;;;;;;4.32;41.66;101562.31;10319730;28;20564;-64
2022/03/01 03:02:52;;;;;;;13.10;10.30;;;;;;;4.17;41.82;101553.97;10312308;28;20050;-65
2022/03/01 03:07:53;;;;;;;12.48;9.77;;;;;;;4.13;41.80;101554.13;10311678;28;20049;-65
2022/03/01 03:12:55;;;;;;;13.23;10.27;;;;;;;4.10;41.95;101549.84;10313384;28;20497;-64
2022/03/01 03:17:57;;;;;;;12.50;9.40;;;;;;;4.15;42.11;101561.09;10310548;28;20053;-64
2022/03/01 03:22:59;;;;;;;13.65;10.00;;;;;;;4.00;41.76;101545.78;10314221;28;20464;-65
2022/03/01 03:28:00;;;;;;;13.35;10.10;;;;;;;3.88;42.31;101542.63;10313203;28;20054;-65
2022/03/01 03:33:02;;;;;;;16.05;10.27;;;;;;;3.99;42.29;101554.59;10313297;28;20064;-64
2022/03/01 03:38:03;;;;;;;15.55;10.90;;;;;;;3.83;42.31;101549.81;10322891;28;20220;-65
2022/03/01 03:43:05;;;;;;;14.55;10.20;;;;;;;3.79;42.73;101548.19;10319667;28;20089;-65
2022/03/01 03:48:07;;;;;;;14.07;9.77;;;;;;;3.80;42.19;101544.66;10333160;28;20038;-65
2022/03/01 03:53:09;;;;;;;14.57;10.10;;;;;;;3.55;42.84;101534.00;10321699;28;20074;-65
2022/03/01 03:58:11;;;;;;;15.10;10.68;;;;;;;3.51;43.00;101541.16;10318630;28;20050;-65
2022/03/01 04:03:13;;;;;;;14.25;10.75;;;;;;;3.54;43.13;101546.31;10320075;28;20038;-64
2022/03/01 04:08:14;;;;;;;14.85;10.73;;;;;;;3.62;43.41;101551.34;10318558;28;20049;-65
2022/03/01 04:13:16;;;;;;;15.70;10.93;;;;;;;3.61;43.08;101548.78;10319624;28;20060;-64
2022/03/01 04:18:17;;;;;;;15.85;10.85;;;;;;;3.59;43.31;101547.94;10316868;28;20575;-64
2022/03/01 04:23:19;;;;;;;14.15;9.95;;;;;;;3.70;43.18;101549.34;10317888;28;20054;-65
2022/03/01 04:28:21;;;;;;;14.82;10.70;;;;;;;3.69;43.61;101547.63;10315581;28;20054;-66
2022/03/01 04:33:22;;;;;;;13.35;10.18;;;;;;;3.82;43.13;101537.56;10317256;28;20141;-64
2022/03/01 04:38:25;;;;;;;15.00;10.50;;;;;;;3.70;43.21;101530.03;10315803;28;20592;-64
2022/03/01 04:43:27;;;;;;;13.07;10.10;;;;;;;3.80;43.27;101547.28;10316270;28;20608;-64
2022/03/01 04:48:29;;;;;;;13.75;9.75;;;;;;;3.81;43.26;101548.13;10314731;28;20073;-66
2022/03/01 04:53:31;;;;;;;11.05;9.68;;;;;;;3.68;43.18;101537.16;10313252;28;20149;-64
2022/03/01 04:58:33;;;;;;;15.50;10.27;;;;;;;3.68;43.38;101534.50;10301910;28;20060;-65
2022/03/01 05:03:34;;;;;;;14.43;10.20;;;;;;;3.63;43.27;101531.13;10314137;28;20172;-64
2022/03/01 05:08:36;;;;;;;12.15;10.10;;;;;;;3.65;43.18;101532.81;10318130;28;20572;-64
2022/03/01 05:13:37;;;;;;;15.25;11.40;;;;;;;3.57;42.94;101523.44;10316057;28;20497;-64
2022/03/01 05:18:39;;;;;;;13.55;10.30;;;;;;;3.51;43.55;101538.53;10313442;28;20056;-64
2022/03/01 05:23:40;;;;;;;15.40;10.85;;;;;;;3.46;43.75;101529.88;10311444;28;20054;-64
2022/03/01 05:28:45;;;;;;;12.65;9.88;;;;;;;3.43;43.16;101540.50;10315444;28;20156;-65
2022/03/01 05:33:47;;;;;;;14.20;10.32;;;;;;;3.41;43.14;101552.88;10313291;28;20046;-64
2022/03/01 05:38:48;;;;;;;13.38;10.27;;;;;;;3.60;43.30;101562.84;10314662;28;20060;-64
2022/03/01 05:43:50;;;;;;;15.20;10.73;;;;;;;3.64;43.58;101575.00;10315961;28;20060;-64
2022/03/01 05:48:52;;;;;;;15.52;10.93;;;;;;;3.67;43.55;101562.59;10314169;28;20050;-65
2022/03/01 05:53:54;;;;;;;16.63;11.55;;;;;;;3.39;43.46;101549.41;10309331;28;20057;-65
2022/03/01 05:58:55;;;;;;;14.77;10.30;;;;;;;3.39;43.75;101565.19;10309652;28;20056;-64
2022/03/01 06:03:57;;;;;;;13.85;10.70;;;;;;;3.33;44.37;101578.53;10326312;28;20056;-62
2022/03/01 06:08:58;;;;;;;13.65;10.27;;;;;;;3.31;43.99;101577.72;10316386;28;20057;-63
2022/03/01 06:13:59;;;;;;;15.40;10.13;;;;;;;3.35;44.29;101555.69;10314353;28;20057;-61
2022/03/01 06:19:01;;;;;;;13.57;9.90;;;;;;;3.40;44.33;101566.94;10305433;28;20072;-63
2022/03/01 06:24:04;;;;;;;15.95;11.40;;;;;;;3.33;44.26;101568.91;10304111;28;20075;-62
2022/03/01 06:29:06;;;;;;;14.32;11.70;;;;;;;3.24;44.42;101566.50;10310107;28;20061;-63
2022/03/01 06:34:07;;;;;;;14.73;10.50;;;;;;;3.32;44.55;101575.06;10307526;28;20509;-62
2022/03/01 06:39:09;;;;;;;14.23;10.93;;;;;;;3.43;44.54;101580.00;10310348;28;20263;-63
2022/03/01 06:44:10;;;;;;;14.55;10.32;;;;;;;3.49;44.15;101586.84;10303989;28;20544;-62
2022/03/01 06:49:13;;;;;;;14.63;10.88;;;;;;;3.59;44.34;101580.41;10308264;28;20046;-63
2022/03/01 06:54:14;;;;;;;14.35;11.27;;;;;;;3.73;44.38;101587.88;10309324;28;20597;-63
2022/03/01 06:59:17;;;;;;;15.23;10.95;;;;;;;3.76;43.36;101584.31;10308752;28;20220;-64
2022/03/01 07:04:18;;;;;;;15.05;11.82;;;;;;;3.83;42.89;101593.75;10306811;28;20042;-63
2022/03/01 07:09:21;;;;;;;16.05;11.00;;;;;;;4.03;42.72;101588.69;10312291;28;20061;-64
2022/03/01 07:14:23;;;;;;;14.52;10.32;;;;;;;4.15;42.45;101608.53;10303975;28;20153;-65
2022/03/01 07:19:24;;;;;;;15.00;10.77;;;;;;;4.17;42.13;101588.25;10321726;28;20426;-63
2022/03/01 07:24:26;;;;;;;11.98;10.13;;;;;;;4.39;42.00;101603.38;10310240;28;20081;-61
2022/03/01 07:29:27;;;;;;;13.70;10.55;;;;;;;4.58;42.07;101615.03;10323502;28;20603;-62
2022/03/01 07:34:29;;;;;;;14.73;10.15;;;;;;;4.69;40.95;101604.13;10311843;28;20064;-66
2022/03/01 07:39:30;;;;;;;15.88;10.40;;;;;;;4.86;41.08;101615.88;10344805;28;20050;-61
2022/03/01 07:44:36;;;;;;;11.13;9.90;;;;;;;5.02;40.32;101621.47;10342324;28;20065;-61
2022/03/01 07:49:38;;;;;;;15.90;10.68;;;;;;;5.25;39.95;101615.34;10343410;28;20056;-62
2022/03/01 07:54:39;;;;;;;14.85;9.27;;;;;;;5.57;38.86;101624.75;10345239;28;20072;-62
2022/03/01 07:59:41;;;;;;;13.15;9.60;;;;;;;5.69;38.57;101622.53;10339391;28;21191;-61
2022/03/01 08:04:42;;;;;;;13.98;9.70;;;;;;;5.48;38.78;101604.81;10339445;28;20527;-62
2022/03/01 08:09:44;;;;;;;11.98;9.68;;;;;;;5.36;38.92;101609.69;10325782;28;20133;-62
2022/03/01 08:14:45;;;;;;;14.25;10.20;;;;;;;5.74;37.41;101615.31;10325082;28;20053;-61
2022/03/01 08:19:47;;;;;;;13.43;9.95;;;;;;;5.87;36.59;101591.91;10309814;28;20516;-62
2022/03/01 08:24:50;;;;;;;14.27;11.48;;;;;;;6.12;36.49;101599.75;10319620;28;20079;-61
2022/03/01 08:29:52;;;;;;;13.15;9.75;;;;;;;6.26;35.83;101608.00;10312886;28;20141;-63
2022/03/01 08:34:54;;;;;;;14.52;11.75;;;;;;;6.31;36.04;101611.28;10307607;28;20053;-61
2022/03/01 08:39:55;;;;;;;12.05;10.30;;;;;;;6.57;35.75;101617.28;10314332;28;20056;-61
2022/03/01 08:44:57;;;;;;;11.98;9.63;;;;;;;6.76;34.94;101612.09;10342678;28;20054;-62
2022/03/01 08:50:04;;;;;;;14.68;11.18;;;;;;;7.10;34.64;101620.34;10343252;28;20133;-62
2022/03/01 08:55:26;;;;;;;13.80;9.93;;;;;;;7.25;33.39;101615.22;10339595;28;20053;-64
2022/03/01 09:00:28;;;;;;;13.40;10.55;;;;;;;7.49;32.96;101601.81;10336403;28;20139;-61
2022/03/01 09:05:30;;;;;;;15.35;8.63;;;;;;;7.93;32.11;101590.03;10341235;28;20050;-64
2022/03/01 09:10:32;;;;;;;10.27;9.27;;;;;;;8.13;31.11;101605.81;10341512;28;20060;-63
2022/03/01 09:15:33;;;;;;;12.00;8.27;;;;;;;8.21;30.79;101594.00;10340783;28;20057;-61
2022/03/01 09:20:35;;;;;;;11.05;8.25;;;;;;;8.42;29.94;101581.44;10339863;28;20324;-61
2022/03/01 09:25:37;;;;;;;10.90;9.02;;;;;;;9.07;29.55;101579.03;10345192;28;20095;-62
2022/03/01 09:30:38;;;;;;;9.90;8.88;;;;;;;9.52;29.44;101563.34;10341206;28;20140;-62
2022/03/01 09:35:40;;;;;;;11.75;7.78;;;;;;;10.11;28.20;101560.91;10339621;28;20496;-61
2022/03/01 09:40:46;;;;;;;11.45;9.23;;;;;;;9.72;28.14;101562.22;10345860;28;20140;-63
2022/03/01 09:45:47;;;;;;;10.88;8.30;;;;;;;9.60;28.99;101546.97;10339053;28;20073;-62
2022/03/01 09:50:49;;;;;;;9.55;8.55;;;;;;;9.47;28.94;101555.63;10338859;28;20120;-61
2022/03/01 09:55:52;;;;;;;11.05;8.77;;;;;;;10.27;29.03;101545.75;10337873;28;20057;-61
2022/03/01 10:00:53;;;;;;;12.98;8.85;;;;;;;11.56;26.70;101546.84;10334024;28;20046;-61
2022/03/01 10:06:06;;;;;;;11.77;10.13;;;;;;;12.05;25.77;101544.63;10337604;28;20039;-60
2022/03/01 10:11:08;;;;;;;10.57;8.98;;;;;;;12.77;24.59;101545.06;10340148;28;20106;-60
2022/03/01 10:16:16;;;;;;;11.27;10.13;;;;;;;14.81;22.16;101536.41;10337561;28;20061;-61
2022/03/01 10:21:20;;;;;;;9.63;7.88;;;;;;;14.89;21.72;101543.84;10338295;28;20054;-64
2022/03/01 10:26:31;;;;;;;10.32;8.57;;;;;;;15.06;21.62;101533.63;10340177;28;20049;-63
2022/03/01 10:31:36;;;;;;;9.73;8.35;;;;;;;15.67;21.21;101549.31;10349450;28;20053;-62
2022/03/01 10:36:49;;;;;;;8.93;7.53;;;;;;;16.01;20.38;101546.56;10316310;28;20046;-62
2022/03/01 10:41:51;;;;;;;9.52;8.40;;;;;;;15.46;20.53;101551.91;10304805;28;20074;-63
2022/03/01 10:46:58;;;;;;;9.30;8.27;;;;;;;14.66;21.53;101542.97;10306868;28;20074;-62
2022/03/01 10:52:05;;;;;;;9.48;8.18;;;;;;;19.80;16.96;101548.28;10303236;28;20496;-63
2022/03/01 10:57:08;;;;;;;9.57;8.35;;;;;;;23.59;13.84;101523.91;10308111;28;20087;-64
2022/03/01 11:02:10;;;;;;;9.65;8.07;;;;;;;26.37;12.55;101527.50;10299590;28;20133;-64
2022/03/01 11:07:12;;;;;;;10.00;8.93;;;;;;;26.35;11.19;101518.66;10309266;28;20050;-64
2022/03/01 11:12:18;;;;;;;10.00;8.25;;;;;;;25.39;11.45;101515.16;10307363;28;20050;-64
2022/03/01 11:17:42;;;;;;;9.70;7.38;;;;;;;23.22;13.16;101511.03;10309429;28;21015;-64
2022/03/01 11:22:46;;;;;;;9.32;8.00;;;;;;;24.41;12.37;101499.88;10309466;28;20042;-64
2022/03/01 11:27:51;;;;;;;8.75;7.95;;;;;;;24.53;12.20;101503.84;10308851;28;20046;-63
2022/03/01 11:32:56;;;;;;;8.82;7.93;;;;;;;21.62;13.79;101492.50;10302555;28;20567;-63
2022/03/01 11:38:04;;;;;;;9.65;8.75;;;;;;;20.15;15.20;101496.09;10317062;28;20440;-63
2022/03/01 11:43:26;;;;;;;8.15;7.35;;;;;;;24.23;12.39;101487.47;10305407;28;20042;-63
2022/03/01 11:48:29;;;;;;;9.50;7.72;;;;;;;26.21;10.98;101479.50;10306475;28;20054;-64
2022/03/01 11:53:34;;;;;;;8.63;7.68;;;;;;;26.54;10.59;101467.97;10320975;28;20583;-63
2022/03/01 11:58:37;;;;;;;12.55;7.07;;;;;;;26.37;10.53;101451.91;10306929;28;20056;-64
2022/03/01 12:03:39;;;;;;;7.95;7.15;;;;;;;24.72;10.81;101437.16;10310057;28;20963;-64
2022/03/01 12:08:41;;;;;;;13.10;6.82;;;;;;;21.07;13.20;101445.09;10309192;28;20088;-64
2022/03/01 12:13:44;;;;;;;8.00;7.03;;;;;;;19.46;15.16;101441.72;10314596;28;20062;-63
2022/03/01 12:18:46;;;;;;;7.20;6.50;;;;;;;24.59;11.11;101432.38;10310449;28;20053;-63
2022/03/01 12:23:47;;;;;;;7.05;6.20;;;;;;;28.25;9.43;101415.06;10311214;28;20050;-64
2022/03/01 12:28:51;;;;;;;7.63;6.90;;;;;;;27.79;9.49;101405.84;10307375;28;20042;-64
2022/03/01 12:34:01;;;;;;;10.20;7.55;;;;;;;27.14;10.24;101392.66;10311469;28;20157;-63
2022/03/01 12:39:08;;;;;;;7.88;7.15;;;;;;;26.18;10.08;101379.78;10315491;28;20144;-63
2022/03/01 12:44:15;;;;;;;6.60;6.00;;;;;;;26.58;9.64;101360.06;10326372;28;20697;-64
2022/03/01 12:49:18;;;;;;;7.50;6.60;;;;;;;28.19;9.15;101355.72;10317674;28;20056;-63
2022/03/01 12:54:26;;;;;;;7.13;6.53;;;;;;;30.10;8.07;101339.41;10301799;28;20065;-63
2022/03/01 12:59:30;;;;;;;6.65;5.95;;;;;;;30.32;7.89;101337.03;10305815;28;20144;-65
2022/03/01 13:04:34;;;;;;;6.40;5.80;;;;;;;29.40;8.17;101328.63;10309873;28;20101;-62
2022/03/01 13:09:35;;;;;;;6.57;5.97;;;;;;;29.00;8.17;101332.44;10316458;28;20452;-63
2022/03/01 13:14:37;;;;;;;5.43;4.93;;;;;;;30.47;7.50;101322.13;10319287;28;20114;-63
2022/03/01 13:19:41;;;;;;;7.55;4.85;;;;;;;31.41;6.77;101326.28;10306901;28;20127;-64
2022/03/01 13:24:49;;;;;;;6.00;4.97;;;;;;;33.02;6.34;101313.06;10293430;28;20049;-62
2022/03/01 13:29:51;;;;;;;5.68;5.00;;;;;;;32.75;5.82;101314.47;10307795;28;20178;-62
2022/03/01 13:35:02;;;;;;;6.85;5.00;;;;;;;33.99;5.71;101294.50;10315176;28;20064;-63
2022/03/01 13:40:04;;;;;;;5.43;4.93;;;;;;;33.58;5.42;101288.34;10305118;28;20041;-63
2022/03/01 13:45:10;;;;;;;5.28;4.75;;;;;;;33.13;5.31;101279.88;10310360;28;20132;-63
2022/03/01 13:50:18;;;;;;;5.28;4.78;;;;;;;33.80;4.99;101280.97;10305103;28;20658;-63
2022/03/01 13:55:24;;;;;;;5.20;4.38;;;;;;;32.92;5.77;101291.63;10335217;28;20148;-64
2022/03/01 14:00:45;;;;;;;6.25;5.20;;;;;;;34.13;5.54;101284.72;10334983;28;20528;-64
2022/03/01 14:05:53;;;;;;;4.72;4.32;;;;;;;34.30;5.07;101284.66;10328577;28;20092;-63
2022/03/01 14:11:03;;;;;;;5.13;4.72;;;;;;;34.33;5.12;101275.88;10333287;28;20053;-66
2022/03/01 14:16:07;;;;;;;5.45;5.05;;;;;;;32.64;5.62;101279.53;10332110;28;20050;-63
2022/03/01 14:21:12;;;;;;;5.13;4.65;;;;;;;32.77;5.71;101270.13;10331695;28;20053;-64
2022/03/01 14:26:13;;;;;;;5.38;4.40;;;;;;;34.33;5.65;101281.38;10328111;28;20124;-63
2022/03/01 14:31:15;;;;;;;5.88;4.82;;;;;;;33.85;4.99;101265.56;10329606;28;20056;-63
2022/03/01 14:36:17;;;;;;;4.85;4.20;;;;;;;33.25;5.13;101265.19;10331136;28;20068;-64
2022/03/01 14:41:22;;;;;;;5.57;5.07;;;;;;;33.57;5.19;101257.16;10330076;28;20056;-65
2022/03/01 14:46:24;;;;;;;5.25;4.75;;;;;;;29.50;6.95;101246.72;10330111;28;20099;-63
2022/03/01 14:51:26;;;;;;;7.03;4.72;;;;;;;24.11;10.07;101239.56;10333774;28;20060;-62
2022/03/01 14:56:28;;;;;;;6.35;5.57;;;;;;;20.07;12.65;101237.41;10327820;28;20045;-61
2022/03/01 15:01:31;;;;;;;6.68;5.93;;;;;;;18.62;14.43;101245.88;10333133;28;20049;-60
2022/03/01 15:06:32;;;;;;;7.68;6.18;;;;;;;17.20;15.32;101233.28;10336063;28;21356;-60
2022/03/01 15:11:35;;;;;;;6.55;5.90;;;;;;;16.24;16.12;101233.88;10331060;28;20073;-61
2022/03/01 15:16:37;;;;;;;9.53;7.10;;;;;;;15.54;16.69;101222.94;10332615;28;20054;-60
2022/03/01 15:21:39;;;;;;;7.20;6.50;;;;;;;14.72;17.25;101212.03;10331385;28;21350;-61
2022/03/01 15:26:41;;;;;;;6.18;5.57;;;;;;;14.54;17.85;101233.13;10328527;28;20150;-60
2022/03/01 15:31:42;;;;;;;8.93;7.03;;;;;;;14.35;18.77;101245.31;10330821;28;20135;-61
2022/03/01 15:36:44;;;;;;;8.32;7.07;;;;;;;13.83;18.55;101241.44;10328671;28;20057;-60
2022/03/01 15:41:45;;;;;;;7.78;6.97;;;;;;;13.79;19.08;101230.97;10330509;28;20061;-61
2022/03/01 15:46:47;;;;;;;12.50;7.82;;;;;;;13.66;19.63;101238.28;10339033;28;20133;-60
2022/03/01 15:51:48;;;;;;;7.78;6.38;;;;;;;13.53;19.79;101232.16;10334745;28;20049;-60
2022/03/01 15:56:50;;;;;;;8.23;7.43;;;;;;;13.48;20.19;101237.00;10336926;28;20050;-61
2022/03/01 16:01:52;;;;;;;9.77;8.63;;;;;;;13.30;20.78;101232.09;10335602;28;20536;-61
2022/03/01 16:06:53;;;;;;;19.55;16.23;;;;;;;13.22;21.88;101221.94;10334793;28;20068;-61
2022/03/01 16:11:55;;;;;;;8.35;7.47;;;;;;;12.84;21.65;101215.03;10337608;28;20049;-61
2022/03/01 16:16:56;;;;;;;11.90;9.52;;;;;;;12.56;22.05;101226.91;10339141;28;20092;-61
2022/03/01 16:21:58;;;;;;;9.55;6.85;;;;;;;12.31;22.14;101227.81;10337625;28;20041;-61
2022/03/01 16:27:00;;;;;;;8.90;7.10;;;;;;;11.97;22.77;101220.44;10334752;28;20053;-61
2022/03/01 16:32:01;;;;;;;9.35;6.85;;;;;;;11.58;23.01;101219.56;10333645;28;20070;-62
2022/03/01 16:37:04;;;;;;;11.98;6.85;;;;;;;11.10;23.57;101187.34;10334894;28;20852;-61
2022/03/01 16:42:06;;;;;;;8.85;6.82;;;;;;;11.06;24.09;101231.13;10334722;28;20068;-61
2022/03/01 16:47:09;;;;;;;8.45;6.38;;;;;;;10.98;24.54;101249.44;10311817;28;20080;-60
2022/03/01 16:52:10;;;;;;;9.23;7.63;;;;;;;10.68;25.20;101240.69;10310945;28;20057;-60
2022/03/01 16:57:18;;;;;;;11.35;7.90;;;;;;;10.51;25.75;101270.19;10300596;28;20137;-60
2022/03/01 17:02:20;;;;;;;7.95;7.15;;;;;;;10.31;25.78;101252.81;10304000;28;20136;-61
2022/03/01 17:07:22;;;;;;;9.60;7.32;;;;;;;10.32;25.47;101260.72;10308139;28;20895;-61
2022/03/01 17:12:23;;;;;;;11.25;7.80;;;;;;;10.08;25.72;101247.16;10305209;28;20141;-60
2022/03/01 17:17:25;;;;;;;9.48;7.35;;;;;;;10.06;26.28;101262.34;10311487;28;20050;-60
2022/03/01 17:22:26;;;;;;;9.77;7.30;;;;;;;10.11;26.55;101262.91;10308585;28;20987;-61
2022/03/01 17:27:28;;;;;;;15.73;7.75;;;;;;;9.99;26.81;101251.22;10308502;28;20510;-62
2022/03/01 17:32:29;;;;;;;10.40;8.48;;;;;;;10.11;26.92;101257.59;10302627;28;20425;-62
2022/03/01 17:37:31;;;;;;;11.23;8.38;;;;;;;10.13;27.06;101258.34;10299915;28;20236;-61
2022/03/01 17:42:32;;;;;;;10.70;8.73;;;;;;;9.94;27.10;101249.81;10302477;28;20536;-62
2022/03/01 17:47:34;;;;;;;9.00;8.10;;;;;;;9.86;27.48;101248.50;10305774;28;20488;-61
2022/03/01 17:52:35;;;;;;;10.02;8.57;;;;;;;9.85;28.02;101262.72;10320902;28;20058;-61
2022/03/01 17:57:37;;;;;;;11.25;10.07;;;;;;;9.84;27.94;101276.97;10316139;28;20121;-61
2022/03/01 18:02:40;;;;;;;10.02;8.82;;;;;;;9.82;28.48;101283.34;10333348;28;20046;-60
2022/03/01 18:07:42;;;;;;;9.18;8.13;;;;;;;9.78;28.10;101282.66;10330253;28;20057;-61
2022/03/01 18:12:44;;;;;;;9.93;8.45;;;;;;;9.73;28.90;101284.75;10332495;28;20061;-61
2022/03/01 18:17:45;;;;;;;11.65;9.60;;;;;;;9.51;29.16;101274.56;10334148;28;20130;-61
2022/03/01 18:22:47;;;;;;;13.15;10.60;;;;;;;9.54;29.26;101277.88;10331484;28;20076;-60
2022/03/01 18:28:09;;;;;;;13.48;10.60;;;;;;;9.46;29.63;101288.13;10334078;28;20069;-61
2022/03/01 18:33:12;;;;;;;12.95;9.95;;;;;;;9.32;29.42;101283.63;10340772;28;20222;-65
2022/03/01 18:38:13;;;;;;;11.32;9.93;;;;;;;9.22;29.56;101285.09;10351405;28;20184;-65
2022/03/01 18:43:15;;;;;;;13.15;10.15;;;;;;;9.23;30.46;101275.31;10353806;28;20099;-63
2022/03/01 18:48:17;;;;;;;13.80;10.30;;;;;;;9.16;30.25;101280.16;10337563;28;20054;-63
2022/03/01 18:53:18;;;;;;;11.88;9.75;;;;;;;9.13;30.56;101270.56;10339443;28;20319;-62
2022/03/01 18:58:21;;;;;;;12.50;9.07;;;;;;;8.97;30.35;101264.41;10340243;28;20053;-61
2022/03/01 19:03:23;;;;;;;12.30;10.02;;;;;;;8.89;30.89;101256.91;10339803;28;20133;-62
2022/03/01 19:08:26;;;;;;;14.32;10.02;;;;;;;8.84;30.89;101257.16;10336904;28;20400;-63
2022/03/01 19:13:28;;;;;;;11.77;10.48;;;;;;;8.83;31.05;101274.03;10344804;28;20049;-61
2022/03/01 19:18:29;;;;;;;11.15;10.02;;;;;;;8.66;31.54;101266.16;10347633;28;20064;-62
2022/03/01 19:23:31;;;;;;;12.75;9.73;;;;;;;8.71;31.54;101263.22;10349834;28;20061;-61
2022/03/01 19:28:33;;;;;;;10.85;9.32;;;;;;;8.80;31.37;101268.06;10325552;28;20053;-61
2022/03/01 19:33:35;;;;;;;10.75;9.45;;;;;;;8.70;31.49;101270.34;10314260;28;20049;-62
2022/03/01 19:38:37;;;;;;;14.60;10.73;;;;;;;8.60;31.81;101258.53;10318546;28;20062;-61
2022/03/01 19:43:38;;;;;;;13.73;9.32;;;;;;;8.53;31.76;101249.19;10311329;28;20693;-61
2022/03/01 19:48:41;;;;;;;12.90;11.00;;;;;;;8.40;32.12;101233.94;10319093;28;20088;-61
2022/03/01 19:53:42;;;;;;;12.52;10.02;;;;;;;8.35;32.20;101249.28;10308302;28;20057;-60
2022/03/01 19:58:44;;;;;;;11.65;9.48;;;;;;;8.30;32.17;101248.66;10312617;28;20085;-60
2022/03/01 20:03:47;;;;;;;11.68;9.98;;;;;;;8.16;32.27;101240.63;10314196;28;20057;-61
2022/03/01 20:08:50;;;;;;;11.40;9.40;;;;;;;7.97;32.59;101228.34;10327182;28;20060;-62
2022/03/01 20:13:52;;;;;;;11.73;9.57;;;;;;;7.95;33.08;101238.19;10345758;28;20053;-61
2022/03/01 20:18:54;;;;;;;11.73;9.00;;;;;;;7.78;32.67;101220.53;10344622;28;20949;-63
2022/03/01 20:23:55;;;;;;;11.65;10.45;;;;;;;7.77;33.34;101224.97;10344677;28;20045;-62
2022/03/01 20:28:57;;;;;;;10.88;9.77;;;;;;;7.68;33.46;101220.16;10344591;28;20051;-62
2022/03/01 20:33:58;;;;;;;13.95;10.13;;;;;;;7.58;33.94;101218.91;10342554;28;20539;-63
2022/03/01 20:39:00;;;;;;;13.43;10.27;;;;;;;7.32;34.02;101183.22;10343536;28;20049;-64
2022/03/01 20:44:01;;;;;;;11.63;10.43;;;;;;;7.47;33.92;101218.66;10347192;28;20499;-64
2022/03/01 20:49:03;;;;;;;12.50;11.02;;;;;;;7.37;34.29;101203.22;10351648;28;20053;-64
2022/03/01 20:54:06;;;;;;;13.48;10.13;;;;;;;7.42;34.47;101217.06;10353162;28;20129;-62
2022/03/01 20:59:09;;;;;;;11.02;9.93;;;;;;;7.37;34.42;101215.59;10347998;28;20050;-64
2022/03/01 21:04:10;;;;;;;11.38;10.27;;;;;;;7.28;34.85;101216.06;10353134;28;20052;-63
2022/03/01 21:09:11;;;;;;;12.38;10.60;;;;;;;7.05;35.20;101192.47;10358017;28;20050;-62
2022/03/01 21:14:13;;;;;;;11.05;9.98;;;;;;;6.97;35.31;101193.81;10356145;28;20096;-63
2022/03/01 21:19:14;;;;;;;12.60;10.30;;;;;;;6.98;35.51;101206.97;10358531;28;20066;-63
2022/03/01 21:24:16;;;;;;;14.27;11.00;;;;;;;6.98;35.31;101219.34;10350605;28;21713;-62
2022/03/01 21:29:17;;;;;;;13.60;10.10;;;;;;;6.95;35.75;101220.38;10355810;28;20052;-62
2022/03/01 21:34:19;;;;;;;11.23;9.73;;;;;;;7.06;35.53;101220.69;10358194;28;20136;-61
2022/03/01 21:39:20;;;;;;;10.45;9.30;;;;;;;7.04;35.63;101224.31;10351856;28;20105;-63
2022/03/01 21:44:22;;;;;;;10.57;9.52;;;;;;;7.00;35.42;101213.03;10349482;28;20051;-61
2022/03/01 21:49:24;;;;;;;11.07;9.93;;;;;;;6.93;35.63;101208.13;10353014;28;20056;-62
2022/03/01 21:54:26;;;;;;;11.07;10.02;;;;;;;6.82;35.72;101176.91;10353099;28;20630;-62
2022/03/01 21:59:27;;;;;;;14.00;10.35;;;;;;;6.82;35.62;101184.88;10359027;28;20049;-63
2022/03/01 22:04:28;;;;;;;9.40;8.55;;;;;;;6.92;35.33;101196.72;10352790;28;20062;-63
2022/03/01 22:09:33;;;;;;;10.25;9.15;;;;;;;6.83;35.45;101200.66;10353371;28;20053;-61
2022/03/01 22:14:34;;;;;;;11.57;8.23;;;;;;;6.86;35.28;101210.22;10350762;28;20129;-64
2022/03/01 22:19:35;;;;;;;9.23;8.25;;;;;;;6.87;35.57;101209.28;10351803;28;20045;-63
2022/03/01 22:24:37;;;;;;;10.25;8.82;;;;;;;6.76;35.69;101187.81;10351639;28;20548;-64
2022/03/01 22:29:38;;;;;;;11.45;9.15;;;;;;;6.84;36.04;101201.50;10352699;28;20052;-62
2022/03/01 22:34:40;;;;;;;11.05;9.57;;;;;;;6.82;36.22;101204.22;10311078;28;20535;-61
2022/03/01 22:39:41;;;;;;;10.27;9.25;;;;;;;6.69;36.54;101187.25;10311611;28;20050;-63
2022/03/01 22:44:43;;;;;;;11.57;9.70;;;;;;;6.73;36.83;101197.59;10310245;28;20144;-62
2022/03/01 22:49:45;;;;;;;11.65;10.52;;;;;;;6.72;36.78;101203.84;10313854;28;20385;-63
2022/03/01 22:54:46;;;;;;;11.35;9.73;;;;;;;6.68;37.03;101201.41;10311548;28;20434;-63
2022/03/01 22:59:48;;;;;;;10.98;9.88;;;;;;;6.70;37.00;101212.78;10311921;28;20046;-63
2022/03/01 23:04:49;;;;;;;10.98;9.77;;;;;;;6.68;37.51;101220.78;10313010;28;20054;-63
2022/03/01 23:09:51;;;;;;;11.32;10.07;;;;;;;6.67;37.47;101208.50;10307110;28;20497;-63